createdAt,value
2022-10-14T00:00:49.205Z,60.59
2022-10-14T00:03:20.235Z,61.42
2022-10-14T00:05:52.080Z,60.66
2022-10-14T00:08:21.960Z,59.75
2022-10-14T00:10:56.080Z,60.20
2022-10-14T00:13:34.844Z,60.95
2022-10-14T00:16:07.248Z,60.79
2022-10-14T00:18:37.751Z,60.73
2022-10-14T00:21:07.279Z,59.69
2022-10-14T00:23:39.616Z,59.21
2022-10-14T00:26:18.872Z,57.97
2022-10-14T00:28:50.227Z,58.35
2022-10-14T00:31:20.383Z,59.40
2022-10-14T00:33:52.989Z,60.25
2022-10-14T00:36:25.051Z,59.21
2022-10-14T00:38:59.343Z,59.38
2022-10-14T00:41:32.825Z,59.35
2022-10-14T00:44:17.027Z,60.47
2022-10-14T00:46:50.888Z,61.05
2022-10-14T00:49:29.831Z,61.31
2022-10-14T00:52:04.516Z,61.06
2022-10-14T00:54:41.227Z,60.83
2022-10-14T00:57:12.642Z,59.76
2022-10-14T00:59:45.531Z,60.46
2022-10-14T01:02:15.635Z,60.00
2022-10-14T01:04:48.081Z,58.89
2022-10-14T01:07:36.056Z,59.39
2022-10-14T01:10:28.675Z,60.16
2022-10-14T01:13:03.159Z,59.58
2022-10-14T01:15:39.813Z,60.70
2022-10-14T01:18:50.054Z,59.47
2022-10-14T01:21:26.343Z,59.67
2022-10-14T01:24:14.134Z,61.54
2022-10-14T01:27:16.691Z,61.78
2022-10-14T01:29:57.651Z,61.93
2022-10-14T01:32:58.426Z,60.87
2022-10-14T01:35:45.123Z,61.91
2022-10-14T01:38:25.816Z,60.81
2022-10-14T01:41:06.287Z,60.29
2022-10-14T01:43:40.965Z,60.68
2022-10-14T01:46:15.029Z,62.10
2022-10-14T01:48:49.954Z,62.32
2022-10-14T01:51:28.916Z,61.39
2022-10-14T01:54:11.605Z,61.14
2022-10-14T01:56:43.647Z,60.93
2022-10-14T01:59:17.467Z,61.66
2022-10-14T02:01:47.026Z,61.66
2022-10-14T02:04:24.618Z,60.81
2022-10-14T02:07:30.518Z,60.73
2022-10-14T02:10:30.148Z,61.41
2022-10-14T02:13:31.346Z,61.03
2022-10-14T02:16:10.830Z,61.89
2022-10-14T02:18:43.630Z,60.63
2022-10-14T02:21:41.346Z,60.60
2022-10-14T02:24:44.058Z,60.56
2022-10-14T02:27:15.907Z,61.19
2022-10-14T02:29:46.478Z,61.36
2022-10-14T02:32:15.665Z,61.22
2022-10-14T02:34:47.768Z,63.06
2022-10-14T02:37:21.013Z,62.15
2022-10-14T02:40:06.079Z,61.77
2022-10-14T02:42:34.400Z,61.31
2022-10-14T02:45:06.862Z,60.04
2022-10-14T02:47:36.540Z,61.34
2022-10-14T02:50:04.876Z,60.67
2022-10-14T02:52:34.317Z,60.69
2022-10-14T02:55:02.773Z,61.97
2022-10-14T02:57:31.190Z,61.30
2022-10-14T02:59:59.663Z,62.21
2022-10-14T03:02:29.087Z,61.83
2022-10-14T03:04:59.291Z,61.53
2022-10-14T03:07:27.514Z,60.62
2022-10-14T03:09:59.088Z,61.03
2022-10-14T03:12:27.103Z,62.24
2022-10-14T03:15:00.696Z,61.90
2022-10-14T03:17:30.841Z,61.66
2022-10-14T03:19:59.595Z,61.58
2022-10-14T03:22:29.832Z,62.19
2022-10-14T03:25:03.334Z,62.46
2022-10-14T03:27:33.512Z,61.91
2022-10-14T03:30:03.895Z,61.60
2022-10-14T03:32:37.382Z,62.58
2022-10-14T03:35:10.412Z,62.66
2022-10-14T03:37:39.427Z,62.13
2022-10-14T03:40:09.009Z,61.57
2022-10-14T03:42:38.082Z,61.19
2022-10-14T03:45:08.666Z,60.51
2022-10-14T03:47:37.934Z,60.06
2022-10-14T03:50:09.096Z,61.13
2022-10-14T03:52:44.835Z,60.80
2022-10-14T03:55:16.370Z,61.25
2022-10-14T03:57:45.799Z,61.22
2022-10-14T04:00:14.906Z,61.63
2022-10-14T04:02:43.838Z,61.41
2022-10-14T04:05:14.171Z,60.93
2022-10-14T04:07:43.419Z,62.55
2022-10-14T04:10:13.508Z,62.63
2022-10-14T04:12:46.869Z,62.77
2022-10-14T04:15:25.522Z,62.71
2022-10-14T04:17:56.548Z,63.18
2022-10-14T04:20:25.074Z,63.71
2022-10-14T04:22:53.453Z,61.86
2022-10-14T04:25:27.303Z,62.25
2022-10-14T04:27:56.087Z,62.37
2022-10-14T04:30:27.939Z,62.88
2022-10-14T04:32:56.857Z,62.85
2022-10-14T04:35:25.253Z,62.15
2022-10-14T04:37:57.443Z,62.29
2022-10-14T04:40:26.491Z,62.66
2022-10-14T04:42:56.359Z,63.13
2022-10-14T04:45:25.969Z,62.11
2022-10-14T04:47:54.746Z,62.27
2022-10-14T04:50:24.768Z,61.60
2022-10-14T04:53:13.296Z,61.06
2022-10-14T04:55:46.939Z,60.74
2022-10-14T04:58:16.040Z,60.85
2022-10-14T05:00:44.930Z,60.55
2022-10-14T05:03:19.779Z,60.63
2022-10-14T05:05:48.632Z,62.11
2022-10-14T05:08:20.186Z,62.75
2022-10-14T05:10:49.225Z,62.70
2022-10-14T05:13:22.350Z,62.50
2022-10-14T05:15:53.072Z,61.99
2022-10-14T05:18:22.868Z,61.55
2022-10-14T05:20:59.234Z,60.76
2022-10-14T05:23:31.003Z,61.03
2022-10-14T05:25:59.678Z,60.98
2022-10-14T05:28:27.309Z,61.07
2022-10-14T05:30:56.780Z,61.51
2022-10-14T05:33:25.157Z,60.95
2022-10-14T05:35:59.617Z,61.61
2022-10-14T05:38:31.695Z,61.76
2022-10-14T05:40:59.833Z,62.56
2022-10-14T05:43:32.178Z,61.97
2022-10-14T05:46:01.571Z,63.58
2022-10-14T05:48:29.920Z,62.71
2022-10-14T05:51:02.299Z,63.18
2022-10-14T05:53:32.652Z,63.17
2022-10-14T05:56:05.732Z,62.66
2022-10-14T05:58:34.803Z,62.36
2022-10-14T06:01:06.807Z,61.84
2022-10-14T06:03:34.720Z,61.92
2022-10-14T06:06:02.851Z,61.55
2022-10-14T06:08:31.122Z,61.91
2022-10-14T06:11:03.170Z,61.75
2022-10-14T06:13:31.279Z,60.95
2022-10-14T06:16:07.804Z,61.03
2022-10-14T06:18:36.622Z,61.22
2022-10-14T06:21:07.629Z,60.88
2022-10-14T06:23:35.501Z,61.19
2022-10-14T06:26:06.869Z,60.42
2022-10-14T06:28:35.034Z,60.33
2022-10-14T06:31:03.199Z,60.28
2022-10-14T06:33:31.769Z,60.67
2022-10-14T06:36:02.723Z,60.09
2022-10-14T06:38:30.678Z,59.81
2022-10-14T06:40:58.825Z,60.06
2022-10-14T06:43:27.949Z,59.82
2022-10-14T06:45:57.714Z,59.82
2022-10-14T06:48:25.417Z,59.55
2022-10-14T06:50:53.850Z,59.58
2022-10-14T06:53:21.459Z,59.83
2022-10-14T06:55:48.924Z,59.59
2022-10-14T06:58:16.741Z,59.83
2022-10-14T07:00:47.945Z,59.43
2022-10-14T07:03:15.808Z,59.38
2022-10-14T07:05:44.133Z,59.11
2022-10-14T07:08:15.244Z,58.52
2022-10-14T07:10:44.033Z,58.71
2022-10-14T07:13:12.303Z,58.10
2022-10-14T07:15:40.392Z,57.69
2022-10-14T07:18:08.648Z,57.58
2022-10-14T07:20:36.122Z,57.72
2022-10-14T07:23:04.492Z,57.95
2022-10-14T07:25:33.136Z,57.69
2022-10-14T07:28:00.722Z,58.08
2022-10-14T07:30:28.498Z,57.98
2022-10-14T07:32:56.990Z,57.63
2022-10-14T07:35:26.789Z,58.33
2022-10-14T07:37:54.979Z,57.83
2022-10-14T07:40:23.106Z,57.71
2022-10-14T07:42:51.357Z,56.91
2022-10-14T07:45:21.283Z,56.83
2022-10-14T07:47:50.574Z,56.63
2022-10-14T07:50:18.684Z,56.77
2022-10-14T07:52:46.630Z,56.20
2022-10-14T07:55:14.630Z,55.57
2022-10-14T07:57:42.239Z,54.79
2022-10-14T08:00:10.074Z,54.57
2022-10-14T08:02:39.301Z,54.14
2022-10-14T08:05:32.868Z,53.86
2022-10-14T08:07:55.115Z,52.99
2022-10-14T08:10:23.212Z,52.28
2022-10-14T08:12:52.027Z,51.14
2022-10-14T08:15:20.502Z,50.97
2022-10-14T08:17:48.479Z,50.91
2022-10-14T08:20:16.066Z,49.69
2022-10-14T08:22:44.179Z,49.60
2022-10-14T08:25:12.560Z,49.32
2022-10-14T08:27:41.162Z,48.99
2022-10-14T08:30:11.437Z,48.57
2022-10-14T08:32:40.190Z,48.63
2022-10-14T08:35:08.830Z,48.58
2022-10-14T08:37:36.897Z,48.05
2022-10-14T08:40:05.788Z,47.83
2022-10-14T08:42:36.153Z,47.06
2022-10-14T08:45:10.269Z,47.25
2022-10-14T08:47:43.045Z,46.61
2022-10-14T08:50:26.888Z,46.24
2022-10-14T08:52:56.777Z,46.21
2022-10-14T08:55:33.125Z,46.01
2022-10-14T08:58:10.386Z,45.69
2022-10-14T09:00:42.275Z,46.27
2022-10-14T09:03:21.042Z,45.62
2022-10-14T09:06:14.110Z,45.51
2022-10-14T09:08:48.094Z,44.85
2022-10-14T09:11:20.679Z,44.10
2022-10-14T09:13:59.980Z,43.98
2022-10-14T09:16:31.843Z,44.09
2022-10-14T09:19:06.365Z,43.34
2022-10-14T09:21:52.342Z,43.44
2022-10-14T09:24:24.115Z,43.22
2022-10-14T09:29:28.803Z,42.94
2022-10-14T09:32:01.751Z,42.66
2022-10-14T09:34:34.356Z,42.61
2022-10-14T09:37:28.738Z,42.43
2022-10-14T09:40:07.001Z,42.39
2022-10-14T09:42:59.324Z,42.81
2022-10-14T09:45:30.186Z,42.40
2022-10-14T09:48:04.152Z,41.54
2022-10-14T09:50:40.847Z,41.72
2022-10-14T09:53:16.905Z,41.80
2022-10-14T09:55:50.250Z,41.10
2022-10-14T09:58:21.082Z,41.29
2022-10-14T10:00:57.073Z,41.10
2022-10-14T10:03:35.685Z,41.27
2022-10-14T10:06:08.421Z,40.64
2022-10-14T10:08:43.061Z,40.94
2022-10-14T10:11:14.069Z,41.21
2022-10-14T10:13:46.459Z,41.73
2022-10-14T10:16:27.345Z,41.74
2022-10-14T10:18:57.283Z,41.59
2022-10-14T10:21:27.686Z,40.48
2022-10-14T10:24:00.935Z,40.93
2022-10-14T10:26:34.065Z,41.08
2022-10-14T10:29:04.289Z,40.65
2022-10-14T10:31:32.575Z,39.96
2022-10-14T10:34:30.161Z,39.63
2022-10-14T10:37:25.546Z,39.34
2022-10-14T10:40:18.703Z,39.18
2022-10-14T10:43:14.599Z,39.50
2022-10-14T10:46:04.710Z,39.38
2022-10-14T10:48:44.364Z,40.02
2022-10-14T10:51:41.043Z,39.36
2022-10-14T10:54:31.514Z,39.26
2022-10-14T10:57:04.262Z,38.89
2022-10-14T10:59:36.861Z,39.29
2022-10-14T11:02:33.981Z,39.33
2022-10-14T11:05:29.677Z,38.54
2022-10-14T11:08:54.445Z,38.51
2022-10-14T11:12:03.186Z,37.97
2022-10-14T11:14:40.047Z,38.06
2022-10-14T11:17:31.175Z,37.82
2022-10-14T11:20:12.618Z,37.01
2022-10-14T11:22:53.271Z,37.88
2022-10-14T11:25:49.494Z,38.47
2022-10-14T11:28:29.863Z,37.42
2022-10-14T11:31:26.834Z,35.96
2022-10-14T11:34:04.547Z,37.49
2022-10-14T11:36:38.316Z,37.08
2022-10-14T11:39:14.637Z,36.23
2022-10-14T11:42:24.802Z,36.86
2022-10-14T11:45:20.450Z,36.85
2022-10-14T11:48:02.403Z,36.89
2022-10-14T11:50:37.187Z,37.08
2022-10-14T11:53:13.732Z,37.16
2022-10-14T11:55:46.422Z,37.17
2022-10-14T11:58:17.878Z,37.62
2022-10-14T12:00:47.625Z,37.32
2022-10-14T12:03:43.907Z,37.96
2022-10-14T12:06:34.699Z,38.33
2022-10-14T12:09:20.142Z,38.25
2022-10-14T12:11:53.582Z,37.98
2022-10-14T12:14:35.388Z,37.63
2022-10-14T12:17:06.848Z,38.35
2022-10-14T12:19:35.764Z,38.62
2022-10-14T12:22:19.260Z,39.75
2022-10-14T12:24:51.138Z,40.42
2022-10-14T12:27:20.317Z,39.94
2022-10-14T12:29:51.073Z,39.84
2022-10-14T12:32:24.871Z,40.04
2022-10-14T12:34:58.134Z,40.11
2022-10-14T12:37:32.544Z,39.84
2022-10-14T12:40:03.765Z,40.56
2022-10-14T12:43:14.051Z,40.37
2022-10-14T12:46:01.074Z,40.59
2022-10-14T12:48:34.192Z,40.75
2022-10-14T12:51:15.712Z,40.64
2022-10-14T12:54:06.366Z,40.64
2022-10-14T12:56:40.182Z,40.02
2022-10-14T12:59:28.714Z,39.92
2022-10-14T13:02:22.224Z,39.34
2022-10-14T13:04:52.699Z,38.45
2022-10-14T13:07:42.571Z,38.48
2022-10-14T13:10:41.865Z,39.65
2022-10-14T13:13:56.036Z,39.05
2022-10-14T13:16:23.675Z,38.19
2022-10-14T13:19:04.688Z,39.01
2022-10-14T13:21:35.455Z,38.16
2022-10-14T13:24:41.949Z,38.71
2022-10-14T13:27:15.664Z,39.02
2022-10-14T13:30:11.044Z,39.40
2022-10-14T13:32:49.408Z,39.29
2022-10-14T13:36:01.195Z,39.56
2022-10-14T13:38:31.800Z,39.38
2022-10-14T13:40:59.740Z,39.95
2022-10-14T13:43:37.872Z,39.79
2022-10-14T13:46:34.385Z,38.84
2022-10-14T13:49:07.775Z,38.69
2022-10-14T13:51:48.190Z,38.81
2022-10-14T13:54:24.430Z,38.60
2022-10-14T14:02:39.934Z,37.81
2022-10-14T14:05:15.288Z,37.59
2022-10-14T14:10:39.140Z,38.62
2022-10-14T14:13:14.664Z,38.19
2022-10-14T14:15:49.572Z,38.07
2022-10-14T14:18:43.365Z,37.70
2022-10-14T14:21:23.773Z,38.35
2022-10-14T14:24:00.276Z,38.60
2022-10-14T14:26:36.165Z,38.19
2022-10-14T14:29:15.475Z,39.20
2022-10-14T14:34:32.596Z,39.52
2022-10-14T14:37:32.001Z,40.22
2022-10-14T14:40:16.527Z,39.84
2022-10-14T14:42:48.134Z,40.31
2022-10-14T14:45:25.593Z,39.42
2022-10-14T14:47:57.365Z,39.07
2022-10-14T14:50:33.731Z,38.37
2022-10-14T14:53:04.544Z,37.52
2022-10-14T14:55:41.315Z,37.77
2022-10-14T14:58:26.674Z,36.98
2022-10-14T15:00:56.349Z,38.48
2022-10-14T15:03:26.706Z,38.60
2022-10-14T15:06:00.061Z,39.79
2022-10-14T15:08:38.163Z,39.79
2022-10-14T15:11:06.370Z,39.83
2022-10-14T15:13:43.675Z,40.81
2022-10-14T15:16:11.629Z,42.06
2022-10-14T15:18:42.662Z,42.28
2022-10-14T15:21:11.742Z,42.99
2022-10-14T15:23:48.386Z,43.52
2022-10-14T15:26:28.931Z,44.13
2022-10-14T15:29:11.808Z,45.17
2022-10-14T15:31:40.474Z,44.81
2022-10-14T15:34:22.010Z,45.00
2022-10-14T15:36:51.358Z,45.27
2022-10-14T15:39:21.928Z,45.34
2022-10-14T15:41:50.070Z,45.62
2022-10-14T15:44:18.133Z,46.24
2022-10-14T15:47:06.148Z,46.50
2022-10-14T15:49:39.074Z,47.55
2022-10-14T15:52:14.141Z,47.70
2022-10-14T15:54:42.350Z,48.51
2022-10-14T15:57:15.567Z,49.01
2022-10-14T15:59:46.452Z,49.34
2022-10-14T16:02:20.755Z,49.24
2022-10-14T16:05:18.769Z,49.96
2022-10-14T16:07:42.304Z,49.84
2022-10-14T16:10:15.460Z,50.52
2022-10-14T16:12:44.204Z,49.24
2022-10-14T16:15:30.604Z,50.67
2022-10-14T16:17:58.721Z,50.12
2022-10-14T16:20:28.120Z,50.00
2022-10-14T16:22:56.038Z,50.06
2022-10-14T16:25:33.679Z,50.08
2022-10-14T16:28:07.578Z,51.30
2022-10-14T16:30:42.002Z,52.59
2022-10-14T16:35:38.492Z,51.84
2022-10-14T16:38:06.465Z,52.60
2022-10-14T16:40:36.736Z,52.22
2022-10-14T16:43:09.657Z,52.83
2022-10-14T16:45:40.937Z,54.75
2022-10-14T16:48:10.425Z,54.56
2022-10-14T16:50:38.547Z,55.93
2022-10-14T16:53:27.686Z,57.49
2022-10-14T16:55:58.856Z,57.87
2022-10-14T16:58:29.805Z,57.23
2022-10-14T17:00:57.754Z,57.42
2022-10-14T17:03:25.658Z,57.12
2022-10-14T17:05:59.236Z,56.31
2022-10-14T17:08:27.588Z,56.25
2022-10-14T17:11:01.024Z,55.80
2022-10-14T17:13:29.497Z,55.12
2022-10-14T17:16:02.071Z,56.12
2022-10-14T17:18:34.574Z,55.10
2022-10-14T17:21:08.611Z,54.92
2022-10-14T17:23:39.251Z,56.18
2022-10-14T17:26:12.120Z,56.81
2022-10-14T17:28:41.781Z,55.26
2022-10-14T17:31:16.655Z,54.27
2022-10-14T17:33:46.904Z,55.49
2022-10-14T17:36:24.266Z,56.00
2022-10-14T17:38:52.454Z,55.62
2022-10-14T17:41:22.199Z,56.15
2022-10-14T17:43:52.519Z,54.67
2022-10-14T17:46:23.974Z,54.31
2022-10-14T17:48:54.325Z,53.99
2022-10-14T17:51:26.863Z,55.27
2022-10-14T17:54:01.112Z,54.84
2022-10-14T17:56:35.351Z,54.85
2022-10-14T17:59:07.688Z,55.86
2022-10-14T18:01:38.026Z,56.23
2022-10-14T18:04:24.837Z,56.97
2022-10-14T18:06:54.365Z,57.13
2022-10-14T18:09:22.938Z,58.37
2022-10-14T18:12:09.453Z,58.58
2022-10-14T18:14:40.771Z,58.68
2022-10-14T18:17:13.535Z,57.75
2022-10-14T18:19:41.932Z,57.16
2022-10-14T18:22:11.278Z,57.21
2022-10-14T18:24:39.905Z,58.19
2022-10-14T18:27:07.589Z,57.71
2022-10-14T18:29:35.780Z,58.32
2022-10-14T18:32:05.954Z,58.60
2022-10-14T18:34:34.276Z,57.20
2022-10-14T18:37:03.636Z,57.20
2022-10-14T18:39:31.611Z,56.73
2022-10-14T18:42:00.371Z,57.00
2022-10-14T18:44:36.821Z,57.35
2022-10-14T18:47:05.763Z,59.11
2022-10-14T18:49:39.826Z,58.04
2022-10-14T18:52:09.967Z,58.85
2022-10-14T18:54:38.589Z,59.25
2022-10-14T18:57:06.244Z,58.83
2022-10-14T18:59:36.237Z,58.56
2022-10-14T19:02:16.082Z,58.35
2022-10-14T19:04:44.539Z,58.21
2022-10-14T19:07:16.429Z,58.63
2022-10-14T19:09:45.128Z,58.32
2022-10-14T19:12:33.226Z,58.26
2022-10-14T19:15:03.269Z,57.53
2022-10-14T19:17:35.971Z,57.44
2022-10-14T19:20:05.669Z,57.67
2022-10-14T19:22:34.604Z,57.05
2022-10-14T19:25:04.471Z,57.54
2022-10-14T19:27:32.598Z,56.86
2022-10-14T19:30:01.571Z,56.98
2022-10-14T19:32:32.919Z,57.52
2022-10-14T19:35:02.207Z,57.05
2022-10-14T19:37:33.207Z,56.83
2022-10-14T19:40:01.344Z,56.94
2022-10-14T19:42:29.492Z,57.74
2022-10-14T19:44:59.247Z,57.99
2022-10-14T19:47:27.430Z,57.97
2022-10-14T19:49:56.439Z,58.71
2022-10-14T19:52:31.388Z,60.21
2022-10-14T19:54:59.446Z,59.94
2022-10-14T19:57:27.135Z,62.48
2022-10-14T19:59:55.800Z,62.62
2022-10-14T20:02:24.417Z,62.12
2022-10-14T20:04:52.289Z,62.28
2022-10-14T20:07:22.848Z,61.98
2022-10-14T20:09:51.357Z,60.12
2022-10-14T20:12:22.428Z,58.72
2022-10-14T20:14:50.557Z,58.54
2022-10-14T20:19:57.561Z,58.27
2022-10-14T20:22:27.552Z,57.32
2022-10-14T20:25:00.435Z,59.05
2022-10-14T20:27:31.254Z,59.32
2022-10-14T20:30:02.858Z,60.26
2022-10-14T20:32:31.950Z,60.67
2022-10-14T20:35:01.814Z,60.93
2022-10-14T20:37:32.464Z,60.90
2022-10-14T20:40:02.270Z,60.37
2022-10-14T20:42:30.398Z,59.47
2022-10-14T20:44:58.765Z,60.38
2022-10-14T20:47:31.815Z,60.08
2022-10-14T20:49:59.648Z,60.28
2022-10-14T20:52:33.114Z,59.98
2022-10-14T20:55:00.952Z,60.50
2022-10-14T20:57:28.799Z,60.58
2022-10-14T20:59:58.402Z,60.37
2022-10-14T21:02:28.792Z,59.60
2022-10-14T21:04:56.326Z,60.45
2022-10-14T21:07:25.785Z,60.87
2022-10-14T21:09:54.128Z,60.62
2022-10-14T21:12:23.200Z,59.46
2022-10-14T21:14:51.951Z,60.94
2022-10-14T21:17:21.847Z,60.88
2022-10-14T21:19:49.567Z,61.49
2022-10-14T21:22:17.907Z,61.49
2022-10-14T21:24:45.427Z,60.98
2022-10-14T21:27:13.815Z,60.79
2022-10-14T21:29:42.926Z,60.67
2022-10-14T21:32:10.858Z,59.99
2022-10-14T21:34:39.190Z,60.17
2022-10-14T21:37:07.141Z,59.49
2022-10-14T21:39:34.782Z,58.21
2022-10-14T21:42:02.554Z,58.93
2022-10-14T21:44:30.826Z,58.94
2022-10-14T21:46:59.558Z,59.35
2022-10-14T21:49:27.616Z,59.48
2022-10-14T21:51:55.898Z,59.95
2022-10-14T21:54:24.859Z,60.27
2022-10-14T21:56:52.398Z,59.79
2022-10-14T21:59:21.678Z,60.42
2022-10-14T22:01:51.035Z,59.92
2022-10-14T22:04:22.419Z,60.51
2022-10-14T22:06:53.556Z,60.90
2022-10-14T22:09:25.546Z,60.67
2022-10-14T22:11:57.285Z,60.22
2022-10-14T22:14:27.490Z,59.83
2022-10-14T22:16:56.596Z,59.98
2022-10-14T22:19:30.452Z,61.25
2022-10-14T22:22:01.785Z,62.07
2022-10-14T22:24:31.430Z,60.70
2022-10-14T22:27:00.257Z,60.12
2022-10-14T22:29:29.852Z,60.71
2022-10-14T22:32:03.835Z,60.91
2022-10-14T22:34:35.563Z,61.65
2022-10-14T22:37:08.798Z,60.91
2022-10-14T22:39:38.497Z,60.40
2022-10-14T22:42:12.215Z,60.34
2022-10-14T22:44:43.309Z,59.27
2022-10-14T22:47:15.359Z,59.54
2022-10-14T22:49:46.356Z,60.32
2022-10-14T22:52:20.345Z,60.12
2022-10-14T22:54:50.239Z,60.37
2022-10-14T22:57:21.175Z,60.06
2022-10-14T22:59:51.908Z,60.27
2022-10-14T23:02:23.990Z,59.49
2022-10-14T23:04:53.307Z,58.93
2022-10-14T23:07:26.028Z,58.83
2022-10-14T23:09:55.898Z,59.92
2022-10-14T23:12:27.672Z,58.70
2022-10-14T23:14:59.755Z,59.30
2022-10-14T23:17:43.887Z,59.50
2022-10-14T23:20:13.345Z,60.26
2022-10-14T23:22:45.125Z,58.65
2022-10-14T23:25:15.661Z,60.34
2022-10-14T23:27:47.661Z,59.92
2022-10-14T23:30:17.266Z,60.06
2022-10-14T23:32:48.786Z,59.05
2022-10-14T23:35:22.396Z,60.06
2022-10-14T23:37:54.325Z,60.30
2022-10-14T23:40:23.767Z,61.02
2022-10-14T23:42:55.415Z,60.77
2022-10-14T23:45:26.067Z,58.98
2022-10-14T23:47:59.936Z,59.19
2022-10-14T23:50:28.937Z,58.98
2022-10-14T23:53:02.337Z,59.83
2022-10-14T23:55:31.867Z,59.32
2022-10-14T23:58:01.736Z,59.39
